Marrowbone, Kentucky
Current Conditions -  °F | °C
As of 4:55 AM on Friday 19 Dec 2014 (Local Time) from KGLW Reporting Station
Clear Clear  
Wind Chill: 29°   Ceiling: Unl
Heat Index: 29°   Visibility: 7mi
Dew Point: 26°   Wind: 0mph
Humidity: 88%   Direction: NA
Pressure: 30.23"   Gusts: NA
Location:  36.83°N, 85.51°W
Report Text: KGLW 191055Z AUTO 00000KT 7SM CLR M02/M03 A3023 RMK AO2 T10161034
Loading
Personal Weather Stations






























Interactive Weather Map New forecast layout! Learn more

10-Day Weather Forecast

Advertisements
Track Severe Weather on mobile